Wilbur Observed Data For Previous 48 Hours

Caption
Day and Hour Reservoir Elevation (behind dam)* Tailwater Elevation (below dam)* Average Hourly Discharge*
2/16/2019 2 AM EST 1,648.04 1,585.62 1,803
2/16/2019 3 AM EST 1,648.18 1,585.64 1,790
2/16/2019 4 AM EST 1,648.30 1,585.62 1,788
2/16/2019 5 AM EST 1,648.43 1,585.60 1,792
2/16/2019 6 AM EST 1,648.54 1,585.63 1,792
2/16/2019 7 AM EST 1,648.62 1,585.65 1,795
2/16/2019 8 AM EST 1,648.64 1,585.64 1,825
2/16/2019 9 AM EST 1,648.66 1,585.64 1,829
2/16/2019 10 AM EST 1,648.64 1,585.67 1,831
2/16/2019 11 AM EST 1,648.61 1,585.64 1,831
2/16/2019 12 PM EST 1,648.58 1,585.63 1,829
2/16/2019 1 PM EST 1,648.56 1,585.64 1,824
2/16/2019 2 PM EST 1,648.52 1,585.63 1,827
2/16/2019 3 PM EST 1,648.49 1,585.66 1,832
2/16/2019 4 PM EST 1,648.46 1,585.64 1,833
2/16/2019 5 PM EST 1,648.43 1,585.66 1,834
2/16/2019 6 PM EST 1,648.40 1,585.64 1,833
2/16/2019 7 PM EST 1,648.36 1,585.64 1,833
2/16/2019 8 PM EST 1,648.32 1,585.65 1,836
2/16/2019 9 PM EST 1,648.30 1,585.64 1,837
2/16/2019 10 PM EST 1,648.26 1,585.65 1,833
2/16/2019 11 PM EST 1,648.21 1,585.64 1,837
2/17/2019 12 AM EST 1,648.17 1,585.65 1,834
2/17/2019 1 AM EST 1,648.14 1,585.67 1,833
2/17/2019 2 AM EST 1,648.11 1,585.63 1,834
2/17/2019 3 AM EST 1,648.07 1,585.65 1,835
2/17/2019 4 AM EST 1,648.03 1,585.65 1,839
2/17/2019 5 AM EST 1,647.98 1,585.67 1,843
2/17/2019 6 AM EST 1,647.95 1,585.65 1,842
2/17/2019 7 AM EST 1,647.89 1,585.66 1,845
2/17/2019 8 AM EST 1,647.83 1,585.71 1,847
2/17/2019 9 AM EST 1,647.78 1,585.73 1,850
2/17/2019 10 AM EST 1,647.75 1,585.73 1,854
2/17/2019 11 AM EST 1,647.70 1,585.70 1,857
2/17/2019 12 PM EST 1,647.69 1,585.70 1,852
2/17/2019 1 PM EST 1,647.64 1,585.67 1,857
2/17/2019 2 PM EST 1,647.59 1,585.67 1,854
2/17/2019 3 PM EST 1,647.55 1,585.66 1,853
2/17/2019 4 PM EST 1,647.52 1,585.65 1,853
2/17/2019 5 PM EST 1,647.49 1,585.67 1,854
2/17/2019 6 PM EST 1,647.44 1,585.67 1,855
2/17/2019 7 PM EST 1,647.42 1,585.67 1,859
2/17/2019 8 PM EST 1,647.38 1,585.68 1,858
2/17/2019 9 PM EST 1,647.35 1,585.68 1,857
2/17/2019 10 PM EST 1,649.08 1,582.85 468
2/17/2019 11 PM EST 1,648.89 1,582.82 250
2/18/2019 12 AM EST 1,648.68 1,582.82 246
2/18/2019 1 AM EST 1,648.51 1,582.81 245
2/18/2019 2 AM EST 1,648.36 1,582.81 245
2/18/2019 3 AM EST 1,648.22 1,582.81 243
2/18/2019 4 AM EST 1,648.08 1,582.80 240
2/18/2019 5 AM EST 1,647.94 1,582.79 240
2/18/2019 6 AM EST 1,647.78 1,582.81 240
2/18/2019 7 AM EST 1,647.63 1,582.82 237
2/18/2019 8 AM EST 1,648.93 1,582.87 242
2/18/2019 9 AM EST 1,649.56 1,582.88 251
2/18/2019 10 AM EST 1,649.37 1,582.84 253
2/18/2019 11 AM EST 1,649.24 1,582.86 250
2/18/2019 12 PM EST 1,649.09 1,582.82 250
2/18/2019 1 PM EST 1,648.93 1,582.81 250
2/18/2019 2 PM EST 1,648.76 1,582.81 247
2/18/2019 3 PM EST 1,648.61 1,582.80 245
2/18/2019 4 PM EST 1,648.45 1,582.79 245
2/18/2019 5 PM EST 1,648.30 1,582.79 245
2/18/2019 6 PM EST 1,648.12 1,582.81 241
2/18/2019 7 PM EST 1,647.96 1,582.85 240
2/18/2019 8 PM EST 1,649.02 1,582.90 244
2/18/2019 9 PM EST 1,648.57 1,585.70 1,608

Elevations are in feet above sea level. Discharges are in cubic feet per second and are reported at the end of the hour.